sensor_id;sensor_type;location;lat;lon;timestamp;temperature;humidity
56103;DHT22;41970;48.774;9.280;2024-03-02T00:00:08;6.30;99.90
56103;DHT22;41970;48.774;9.280;2024-03-02T00:02:42;6.40;99.90
56103;DHT22;41970;48.774;9.280;2024-03-02T00:05:11;6.40;99.90
56103;DHT22;41970;48.774;9.280;2024-03-02T00:07:37;6.40;99.90
56103;DHT22;41970;48.774;9.280;2024-03-02T00:10:09;6.40;99.90
56103;DHT22;41970;48.774;9.280;2024-03-02T00:12:41;6.50;99.90
56103;DHT22;41970;48.774;9.280;2024-03-02T00:17:52;6.60;99.90
56103;DHT22;41970;48.774;9.280;2024-03-02T00:20:22;6.70;99.90
56103;DHT22;41970;48.774;9.280;2024-03-02T00:22:48;6.60;99.90
56103;DHT22;41970;48.774;9.280;2024-03-02T00:25:14;6.70;99.90
56103;DHT22;41970;48.774;9.280;2024-03-02T00:27:40;6.70;99.90
56103;DHT22;41970;48.774;9.280;2024-03-02T00:32:53;6.70;99.90
56103;DHT22;41970;48.774;9.280;2024-03-02T00:35:20;6.60;99.90
56103;DHT22;41970;48.774;9.280;2024-03-02T00:37:47;6.60;99.90
56103;DHT22;41970;48.774;9.280;2024-03-02T00:40:13;6.50;99.90
56103;DHT22;41970;48.774;9.280;2024-03-02T00:42:40;6.50;99.90
56103;DHT22;41970;48.774;9.280;2024-03-02T00:45:08;6.60;99.90
56103;DHT22;41970;48.774;9.280;2024-03-02T00:47:38;6.70;99.90
56103;DHT22;41970;48.774;9.280;2024-03-02T00:50:05;6.80;99.90
56103;DHT22;41970;48.774;9.280;2024-03-02T00:52:32;6.80;99.90
56103;DHT22;41970;48.774;9.280;2024-03-02T00:54:58;6.80;99.90
56103;DHT22;41970;48.774;9.280;2024-03-02T00:57:24;6.90;99.90
56103;DHT22;41970;48.774;9.280;2024-03-02T00:59:51;6.90;99.90
56103;DHT22;41970;48.774;9.280;2024-03-02T01:02:17;6.80;99.90
56103;DHT22;41970;48.774;9.280;2024-03-02T01:04:45;6.60;99.90
56103;DHT22;41970;48.774;9.280;2024-03-02T01:07:11;6.50;99.90
56103;DHT22;41970;48.774;9.280;2024-03-02T01:09:37;6.50;99.90
56103;DHT22;41970;48.774;9.280;2024-03-02T01:12:03;6.40;99.90
56103;DHT22;41970;48.774;9.280;2024-03-02T01:14:28;6.40;99.90
56103;DHT22;41970;48.774;9.280;2024-03-02T01:16:54;6.40;99.90
56103;DHT22;41970;48.774;9.280;2024-03-02T01:19:20;6.50;99.90
56103;DHT22;41970;48.774;9.280;2024-03-02T01:21:46;6.50;99.90
56103;DHT22;41970;48.774;9.280;2024-03-02T01:24:12;6.50;99.90
56103;DHT22;41970;48.774;9.280;2024-03-02T01:26:38;6.50;99.90
56103;DHT22;41970;48.774;9.280;2024-03-02T01:29:04;6.40;99.90
56103;DHT22;41970;48.774;9.280;2024-03-02T01:31:30;6.40;99.90
56103;DHT22;41970;48.774;9.280;2024-03-02T01:33:55;6.40;99.90
56103;DHT22;41970;48.774;9.280;2024-03-02T01:36:21;6.40;99.90
56103;DHT22;41970;48.774;9.280;2024-03-02T01:38:47;6.30;99.90
56103;DHT22;41970;48.774;9.280;2024-03-02T01:41:13;6.30;99.90
56103;DHT22;41970;48.774;9.280;2024-03-02T01:43:38;6.30;99.90
56103;DHT22;41970;48.774;9.280;2024-03-02T01:46:04;6.40;99.90
56103;DHT22;41970;48.774;9.280;2024-03-02T01:48:30;6.50;99.90
56103;DHT22;41970;48.774;9.280;2024-03-02T01:50:56;6.60;99.90
56103;DHT22;41970;48.774;9.280;2024-03-02T01:53:22;6.70;99.90
56103;DHT22;41970;48.774;9.280;2024-03-02T01:55:48;6.80;99.90
56103;DHT22;41970;48.774;9.280;2024-03-02T01:58:14;6.90;99.90
56103;DHT22;41970;48.774;9.280;2024-03-02T02:00:39;6.90;99.90
56103;DHT22;41970;48.774;9.280;2024-03-02T02:03:05;6.70;99.90
56103;DHT22;41970;48.774;9.280;2024-03-02T02:05:32;6.60;99.90
56103;DHT22;41970;48.774;9.280;2024-03-02T02:07:58;6.50;99.90
56103;DHT22;41970;48.774;9.280;2024-03-02T02:10:24;6.60;99.90
56103;DHT22;41970;48.774;9.280;2024-03-02T02:12:50;6.70;99.90
56103;DHT22;41970;48.774;9.280;2024-03-02T02:15:26;6.70;99.90
56103;DHT22;41970;48.774;9.280;2024-03-02T02:17:53;6.50;99.90
56103;DHT22;41970;48.774;9.280;2024-03-02T02:20:19;6.60;99.90
56103;DHT22;41970;48.774;9.280;2024-03-02T02:23:02;6.50;99.90
56103;DHT22;41970;48.774;9.280;2024-03-02T02:25:30;6.30;99.90
56103;DHT22;41970;48.774;9.280;2024-03-02T02:27:56;6.10;99.90
56103;DHT22;41970;48.774;9.280;2024-03-02T02:30:26;6.00;99.90
56103;DHT22;41970;48.774;9.280;2024-03-02T02:32:52;6.00;99.90
56103;DHT22;41970;48.774;9.280;2024-03-02T02:35:18;6.20;99.90
56103;DHT22;41970;48.774;9.280;2024-03-02T02:37:45;6.10;99.90
56103;DHT22;41970;48.774;9.280;2024-03-02T02:40:12;5.90;99.90
56103;DHT22;41970;48.774;9.280;2024-03-02T02:42:38;5.90;99.90
56103;DHT22;41970;48.774;9.280;2024-03-02T02:45:08;5.80;99.90
56103;DHT22;41970;48.774;9.280;2024-03-02T02:47:34;5.80;99.90
56103;DHT22;41970;48.774;9.280;2024-03-02T02:50:03;5.80;99.90
56103;DHT22;41970;48.774;9.280;2024-03-02T02:52:33;5.70;99.90
56103;DHT22;41970;48.774;9.280;2024-03-02T02:55:01;5.60;99.90
56103;DHT22;41970;48.774;9.280;2024-03-02T02:57:28;5.50;99.90
56103;DHT22;41970;48.774;9.280;2024-03-02T02:59:56;5.50;99.90
56103;DHT22;41970;48.774;9.280;2024-03-02T03:02:22;5.50;99.90
56103;DHT22;41970;48.774;9.280;2024-03-02T03:04:47;5.50;99.90
56103;DHT22;41970;48.774;9.280;2024-03-02T03:07:13;5.50;99.90
56103;DHT22;41970;48.774;9.280;2024-03-02T03:09:39;5.50;99.90
56103;DHT22;41970;48.774;9.280;2024-03-02T03:12:05;5.50;99.90
56103;DHT22;41970;48.774;9.280;2024-03-02T03:14:31;5.60;99.90
56103;DHT22;41970;48.774;9.280;2024-03-02T03:16:56;5.70;99.90
56103;DHT22;41970;48.774;9.280;2024-03-02T03:19:22;5.60;99.90
56103;DHT22;41970;48.774;9.280;2024-03-02T03:21:48;5.60;99.90
56103;DHT22;41970;48.774;9.280;2024-03-02T03:24:13;5.50;99.90
56103;DHT22;41970;48.774;9.280;2024-03-02T03:26:39;5.50;99.90
56103;DHT22;41970;48.774;9.280;2024-03-02T03:29:05;5.50;99.90
56103;DHT22;41970;48.774;9.280;2024-03-02T03:31:31;5.50;99.90
56103;DHT22;41970;48.774;9.280;2024-03-02T03:33:57;5.40;99.90
56103;DHT22;41970;48.774;9.280;2024-03-02T03:36:24;5.30;99.90
56103;DHT22;41970;48.774;9.280;2024-03-02T03:38:49;5.20;99.90
56103;DHT22;41970;48.774;9.280;2024-03-02T03:41:15;5.20;99.90
56103;DHT22;41970;48.774;9.280;2024-03-02T03:43:41;5.20;99.90
56103;DHT22;41970;48.774;9.280;2024-03-02T03:46:07;5.20;99.90
56103;DHT22;41970;48.774;9.280;2024-03-02T03:48:33;5.20;99.90
56103;DHT22;41970;48.774;9.280;2024-03-02T03:50:58;5.20;99.90
56103;DHT22;41970;48.774;9.280;2024-03-02T03:53:24;5.20;99.90
56103;DHT22;41970;48.774;9.280;2024-03-02T03:55:50;5.10;99.90
56103;DHT22;41970;48.774;9.280;2024-03-02T03:58:15;5.00;99.90
56103;DHT22;41970;48.774;9.280;2024-03-02T04:00:43;5.00;99.90
56103;DHT22;41970;48.774;9.280;2024-03-02T04:03:08;4.90;99.90
56103;DHT22;41970;48.774;9.280;2024-03-02T04:05:34;4.80;99.90
56103;DHT22;41970;48.774;9.280;2024-03-02T04:08:00;4.80;99.90
56103;DHT22;41970;48.774;9.280;2024-03-02T04:10:26;4.70;99.90
56103;DHT22;41970;48.774;9.280;2024-03-02T04:12:52;4.70;99.90
56103;DHT22;41970;48.774;9.280;2024-03-02T04:15:18;4.60;99.90
56103;DHT22;41970;48.774;9.280;2024-03-02T04:17:44;4.60;99.90
56103;DHT22;41970;48.774;9.280;2024-03-02T04:20:10;4.60;99.90
56103;DHT22;41970;48.774;9.280;2024-03-02T04:22:38;4.60;99.90
56103;DHT22;41970;48.774;9.280;2024-03-02T04:25:04;4.60;99.90
56103;DHT22;41970;48.774;9.280;2024-03-02T04:27:32;4.50;99.90
56103;DHT22;41970;48.774;9.280;2024-03-02T04:29:59;4.50;99.90
56103;DHT22;41970;48.774;9.280;2024-03-02T04:32:26;4.50;99.90
56103;DHT22;41970;48.774;9.280;2024-03-02T04:34:52;4.50;99.90
56103;DHT22;41970;48.774;9.280;2024-03-02T04:37:18;4.40;99.90
56103;DHT22;41970;48.774;9.280;2024-03-02T04:39:44;4.40;99.90
56103;DHT22;41970;48.774;9.280;2024-03-02T04:42:10;4.40;99.90
56103;DHT22;41970;48.774;9.280;2024-03-02T04:44:36;4.40;99.90
56103;DHT22;41970;48.774;9.280;2024-03-02T04:47:04;4.40;99.90
56103;DHT22;41970;48.774;9.280;2024-03-02T04:49:30;4.30;99.90
56103;DHT22;41970;48.774;9.280;2024-03-02T04:51:56;4.30;99.90
56103;DHT22;41970;48.774;9.280;2024-03-02T04:54:24;4.30;99.90
56103;DHT22;41970;48.774;9.280;2024-03-02T04:56:50;4.30;99.90
56103;DHT22;41970;48.774;9.280;2024-03-02T04:59:17;4.30;99.90
56103;DHT22;41970;48.774;9.280;2024-03-02T05:01:43;4.30;99.90
56103;DHT22;41970;48.774;9.280;2024-03-02T05:04:09;4.30;99.90
56103;DHT22;41970;48.774;9.280;2024-03-02T05:06:40;4.30;99.90
56103;DHT22;41970;48.774;9.280;2024-03-02T05:09:07;4.20;99.90
56103;DHT22;41970;48.774;9.280;2024-03-02T05:11:32;4.20;99.90
56103;DHT22;41970;48.774;9.280;2024-03-02T05:14:07;4.20;99.90
56103;DHT22;41970;48.774;9.280;2024-03-02T05:16:36;4.20;99.90
56103;DHT22;41970;48.774;9.280;2024-03-02T05:19:04;4.20;99.90
56103;DHT22;41970;48.774;9.280;2024-03-02T05:21:32;4.10;99.90
56103;DHT22;41970;48.774;9.280;2024-03-02T05:23:59;4.10;99.90
56103;DHT22;41970;48.774;9.280;2024-03-02T05:26:24;4.10;99.90
56103;DHT22;41970;48.774;9.280;2024-03-02T05:28:50;4.10;99.90
56103;DHT22;41970;48.774;9.280;2024-03-02T05:31:16;4.10;99.90
56103;DHT22;41970;48.774;9.280;2024-03-02T05:33:43;4.10;99.90
56103;DHT22;41970;48.774;9.280;2024-03-02T05:36:09;4.10;99.90
56103;DHT22;41970;48.774;9.280;2024-03-02T05:38:35;4.10;99.90
56103;DHT22;41970;48.774;9.280;2024-03-02T05:41:04;4.00;99.90
56103;DHT22;41970;48.774;9.280;2024-03-02T05:43:30;4.00;99.90
56103;DHT22;41970;48.774;9.280;2024-03-02T05:45:56;4.00;99.90
56103;DHT22;41970;48.774;9.280;2024-03-02T05:48:21;4.00;99.90
56103;DHT22;41970;48.774;9.280;2024-03-02T05:50:47;4.00;99.90
56103;DHT22;41970;48.774;9.280;2024-03-02T05:53:13;3.90;99.90
56103;DHT22;41970;48.774;9.280;2024-03-02T05:55:38;3.90;99.90
56103;DHT22;41970;48.774;9.280;2024-03-02T05:58:04;3.90;99.90
56103;DHT22;41970;48.774;9.280;2024-03-02T06:00:48;3.90;99.90
56103;DHT22;41970;48.774;9.280;2024-03-02T06:03:14;3.90;99.90
56103;DHT22;41970;48.774;9.280;2024-03-02T06:05:40;4.00;99.90
56103;DHT22;41970;48.774;9.280;2024-03-02T06:08:06;3.90;99.90
56103;DHT22;41970;48.774;9.280;2024-03-02T06:10:32;4.00;99.90
56103;DHT22;41970;48.774;9.280;2024-03-02T06:12:58;3.90;99.90
56103;DHT22;41970;48.774;9.280;2024-03-02T06:15:24;3.90;99.90
56103;DHT22;41970;48.774;9.280;2024-03-02T06:17:50;3.90;99.90
56103;DHT22;41970;48.774;9.280;2024-03-02T06:20:16;3.90;99.90
56103;DHT22;41970;48.774;9.280;2024-03-02T06:22:42;3.90;99.90
56103;DHT22;41970;48.774;9.280;2024-03-02T06:25:08;3.90;99.90
56103;DHT22;41970;48.774;9.280;2024-03-02T06:27:33;3.90;99.90
56103;DHT22;41970;48.774;9.280;2024-03-02T06:29:59;3.90;99.90
56103;DHT22;41970;48.774;9.280;2024-03-02T06:32:25;4.00;99.90
56103;DHT22;41970;48.774;9.280;2024-03-02T06:34:51;4.00;99.90
56103;DHT22;41970;48.774;9.280;2024-03-02T06:37:16;4.00;99.90
56103;DHT22;41970;48.774;9.280;2024-03-02T06:39:43;4.00;99.90
56103;DHT22;41970;48.774;9.280;2024-03-02T06:42:09;4.00;99.90
56103;DHT22;41970;48.774;9.280;2024-03-02T06:44:34;4.00;99.90
56103;DHT22;41970;48.774;9.280;2024-03-02T06:47:00;4.10;99.90
56103;DHT22;41970;48.774;9.280;2024-03-02T06:49:26;4.10;99.90
56103;DHT22;41970;48.774;9.280;2024-03-02T06:51:51;4.10;99.90
56103;DHT22;41970;48.774;9.280;2024-03-02T06:54:17;4.20;99.90
56103;DHT22;41970;48.774;9.280;2024-03-02T06:56:43;4.20;99.90
56103;DHT22;41970;48.774;9.280;2024-03-02T06:59:09;4.30;99.90
56103;DHT22;41970;48.774;9.280;2024-03-02T07:01:34;4.40;99.90
56103;DHT22;41970;48.774;9.280;2024-03-02T07:04:00;4.40;99.90
56103;DHT22;41970;48.774;9.280;2024-03-02T07:06:26;4.50;99.90
56103;DHT22;41970;48.774;9.280;2024-03-02T07:08:52;4.60;99.90
56103;DHT22;41970;48.774;9.280;2024-03-02T07:11:17;4.60;99.90
56103;DHT22;41970;48.774;9.280;2024-03-02T07:13:43;4.60;99.90
56103;DHT22;41970;48.774;9.280;2024-03-02T07:16:09;4.60;99.90
56103;DHT22;41970;48.774;9.280;2024-03-02T07:18:54;4.60;99.90
56103;DHT22;41970;48.774;9.280;2024-03-02T07:21:22;4.70;99.90
56103;DHT22;41970;48.774;9.280;2024-03-02T07:23:48;4.80;99.90
56103;DHT22;41970;48.774;9.280;2024-03-02T07:26:14;4.90;99.90
56103;DHT22;41970;48.774;9.280;2024-03-02T07:28:41;5.20;99.90
56103;DHT22;41970;48.774;9.280;2024-03-02T07:31:07;5.40;99.90
56103;DHT22;41970;48.774;9.280;2024-03-02T07:33:33;5.50;99.90
56103;DHT22;41970;48.774;9.280;2024-03-02T07:35:59;5.50;99.90
56103;DHT22;41970;48.774;9.280;2024-03-02T07:38:26;5.50;99.90
56103;DHT22;41970;48.774;9.280;2024-03-02T07:40:53;5.50;99.90
56103;DHT22;41970;48.774;9.280;2024-03-02T07:43:19;5.60;99.90
56103;DHT22;41970;48.774;9.280;2024-03-02T07:45:46;5.60;99.90
56103;DHT22;41970;48.774;9.280;2024-03-02T07:48:11;5.70;99.90
56103;DHT22;41970;48.774;9.280;2024-03-02T07:50:37;5.80;99.90
56103;DHT22;41970;48.774;9.280;2024-03-02T07:53:05;5.90;99.90
56103;DHT22;41970;48.774;9.280;2024-03-02T07:55:31;6.00;99.90
56103;DHT22;41970;48.774;9.280;2024-03-02T07:57:57;6.10;99.90
56103;DHT22;41970;48.774;9.280;2024-03-02T08:00:23;6.20;99.90
56103;DHT22;41970;48.774;9.280;2024-03-02T08:02:50;6.30;99.90
56103;DHT22;41970;48.774;9.280;2024-03-02T08:05:19;6.30;99.90
56103;DHT22;41970;48.774;9.280;2024-03-02T08:07:45;6.30;99.90
56103;DHT22;41970;48.774;9.280;2024-03-02T08:10:12;6.40;99.90
56103;DHT22;41970;48.774;9.280;2024-03-02T08:12:38;6.60;99.90
56103;DHT22;41970;48.774;9.280;2024-03-02T08:15:04;6.70;99.90
56103;DHT22;41970;48.774;9.280;2024-03-02T08:17:30;6.60;99.90
56103;DHT22;41970;48.774;9.280;2024-03-02T08:19:57;6.60;99.90
56103;DHT22;41970;48.774;9.280;2024-03-02T08:22:23;6.70;99.90
56103;DHT22;41970;48.774;9.280;2024-03-02T08:24:51;6.80;99.90
56103;DHT22;41970;48.774;9.280;2024-03-02T08:27:17;7.00;99.90
56103;DHT22;41970;48.774;9.280;2024-03-02T08:29:42;7.30;99.90
56103;DHT22;41970;48.774;9.280;2024-03-02T08:32:08;7.40;99.90
56103;DHT22;41970;48.774;9.280;2024-03-02T08:34:34;7.30;99.90
56103;DHT22;41970;48.774;9.280;2024-03-02T08:37:09;7.30;99.90
56103;DHT22;41970;48.774;9.280;2024-03-02T08:39:35;7.70;99.90
56103;DHT22;41970;48.774;9.280;2024-03-02T08:42:01;7.80;99.90
56103;DHT22;41970;48.774;9.280;2024-03-02T08:44:26;8.10;99.90
56103;DHT22;41970;48.774;9.280;2024-03-02T08:46:52;8.40;99.90
56103;DHT22;41970;48.774;9.280;2024-03-02T08:49:18;8.80;99.90
56103;DHT22;41970;48.774;9.280;2024-03-02T08:51:44;9.10;99.90
56103;DHT22;41970;48.774;9.280;2024-03-02T08:54:09;9.60;99.90
56103;DHT22;41970;48.774;9.280;2024-03-02T08:56:35;10.00;99.90
56103;DHT22;41970;48.774;9.280;2024-03-02T08:59:01;10.10;99.90
56103;DHT22;41970;48.774;9.280;2024-03-02T09:01:27;10.80;99.90
56103;DHT22;41970;48.774;9.280;2024-03-02T09:03:53;11.20;99.90
56103;DHT22;41970;48.774;9.280;2024-03-02T09:06:19;11.70;99.90
56103;DHT22;41970;48.774;9.280;2024-03-02T09:08:47;11.60;99.90
56103;DHT22;41970;48.774;9.280;2024-03-02T09:11:15;11.60;99.90
56103;DHT22;41970;48.774;9.280;2024-03-02T09:13:40;11.60;99.90
56103;DHT22;41970;48.774;9.280;2024-03-02T09:16:07;12.50;99.90
56103;DHT22;41970;48.774;9.280;2024-03-02T09:18:33;12.70;99.90
56103;DHT22;41970;48.774;9.280;2024-03-02T09:20:58;13.40;99.90
56103;DHT22;41970;48.774;9.280;2024-03-02T09:23:25;13.90;99.90
56103;DHT22;41970;48.774;9.280;2024-03-02T09:25:50;14.00;99.90
56103;DHT22;41970;48.774;9.280;2024-03-02T09:28:16;13.60;99.90
56103;DHT22;41970;48.774;9.280;2024-03-02T09:30:42;13.60;99.90
56103;DHT22;41970;48.774;9.280;2024-03-02T09:33:07;13.60;99.90
56103;DHT22;41970;48.774;9.280;2024-03-02T09:35:33;13.80;99.90
56103;DHT22;41970;48.774;9.280;2024-03-02T09:37:59;13.70;98.80
56103;DHT22;41970;48.774;9.280;2024-03-02T09:40:25;13.30;99.70
56103;DHT22;41970;48.774;9.280;2024-03-02T09:42:54;12.70;99.70
56103;DHT22;41970;48.774;9.280;2024-03-02T09:45:24;12.80;99.90
56103;DHT22;41970;48.774;9.280;2024-03-02T09:47:50;12.80;99.90
56103;DHT22;41970;48.774;9.280;2024-03-02T09:50:16;12.80;99.80
56103;DHT22;41970;48.774;9.280;2024-03-02T09:52:48;12.40;99.70
56103;DHT22;41970;48.774;9.280;2024-03-02T09:55:15;12.40;99.90
56103;DHT22;41970;48.774;9.280;2024-03-02T09:57:42;12.30;99.90
56103;DHT22;41970;48.774;9.280;2024-03-02T10:00:08;12.20;99.90
56103;DHT22;41970;48.774;9.280;2024-03-02T10:02:34;12.30;99.90
56103;DHT22;41970;48.774;9.280;2024-03-02T10:05:00;12.40;99.90
56103;DHT22;41970;48.774;9.280;2024-03-02T10:07:29;12.60;99.90
56103;DHT22;41970;48.774;9.280;2024-03-02T10:09:55;12.40;99.30
56103;DHT22;41970;48.774;9.280;2024-03-02T10:12:21;12.50;99.90
56103;DHT22;41970;48.774;9.280;2024-03-02T10:14:48;12.90;99.90
56103;DHT22;41970;48.774;9.280;2024-03-02T10:17:18;13.40;99.80
56103;DHT22;41970;48.774;9.280;2024-03-02T10:19:44;13.60;98.90
56103;DHT22;41970;48.774;9.280;2024-03-02T10:22:10;13.40;98.90
56103;DHT22;41970;48.774;9.280;2024-03-02T10:24:41;13.20;99.70
56103;DHT22;41970;48.774;9.280;2024-03-02T10:27:08;13.10;99.70
56103;DHT22;41970;48.774;9.280;2024-03-02T10:29:37;13.20;99.90
56103;DHT22;41970;48.774;9.280;2024-03-02T10:32:04;13.00;99.30
56103;DHT22;41970;48.774;9.280;2024-03-02T10:34:32;12.80;99.90
56103;DHT22;41970;48.774;9.280;2024-03-02T10:36:58;12.60;99.90
56103;DHT22;41970;48.774;9.280;2024-03-02T10:39:24;12.60;99.80
56103;DHT22;41970;48.774;9.280;2024-03-02T10:41:52;12.60;99.90
56103;DHT22;41970;48.774;9.280;2024-03-02T10:44:19;12.70;99.90
56103;DHT22;41970;48.774;9.280;2024-03-02T10:46:46;12.70;99.90
56103;DHT22;41970;48.774;9.280;2024-03-02T10:49:12;12.60;99.90
56103;DHT22;41970;48.774;9.280;2024-03-02T10:51:38;12.50;99.90
56103;DHT22;41970;48.774;9.280;2024-03-02T10:54:05;12.50;99.90
56103;DHT22;41970;48.774;9.280;2024-03-02T10:56:33;12.50;99.90
56103;DHT22;41970;48.774;9.280;2024-03-02T10:59:03;12.50;99.90
56103;DHT22;41970;48.774;9.280;2024-03-02T11:01:32;12.50;99.90
56103;DHT22;41970;48.774;9.280;2024-03-02T11:03:59;12.50;99.90
56103;DHT22;41970;48.774;9.280;2024-03-02T11:06:28;12.70;99.90
56103;DHT22;41970;48.774;9.280;2024-03-02T11:08:56;13.00;99.90
56103;DHT22;41970;48.774;9.280;2024-03-02T11:11:29;12.90;99.90
56103;DHT22;41970;48.774;9.280;2024-03-02T11:13:57;12.80;99.70
56103;DHT22;41970;48.774;9.280;2024-03-02T11:16:35;12.70;99.40
56103;DHT22;41970;48.774;9.280;2024-03-02T11:19:12;12.70;99.70
56103;DHT22;41970;48.774;9.280;2024-03-02T11:21:38;12.70;99.70
56103;DHT22;41970;48.774;9.280;2024-03-02T11:26:58;13.10;99.50
56103;DHT22;41970;48.774;9.280;2024-03-02T11:29:53;13.10;98.30
56103;DHT22;41970;48.774;9.280;2024-03-02T11:32:23;12.90;98.40
56103;DHT22;41970;48.774;9.280;2024-03-02T11:34:50;12.90;99.00
56103;DHT22;41970;48.774;9.280;2024-03-02T11:37:17;13.00;97.70
56103;DHT22;41970;48.774;9.280;2024-03-02T11:39:49;13.20;98.10
56103;DHT22;41970;48.774;9.280;2024-03-02T11:42:15;13.20;97.70
56103;DHT22;41970;48.774;9.280;2024-03-02T11:44:46;13.30;97.70
56103;DHT22;41970;48.774;9.280;2024-03-02T11:47:16;13.40;96.60
56103;DHT22;41970;48.774;9.280;2024-03-02T11:49:49;13.40;96.90
56103;DHT22;41970;48.774;9.280;2024-03-02T11:52:17;13.40;96.00
56103;DHT22;41970;48.774;9.280;2024-03-02T11:54:47;13.40;96.70
56103;DHT22;41970;48.774;9.280;2024-03-02T11:57:15;13.40;96.50
56103;DHT22;41970;48.774;9.280;2024-03-02T11:59:41;13.60;96.40
56103;DHT22;41970;48.774;9.280;2024-03-02T12:02:15;13.50;95.60
56103;DHT22;41970;48.774;9.280;2024-03-02T12:04:42;13.50;96.20
56103;DHT22;41970;48.774;9.280;2024-03-02T12:07:09;13.60;96.40
56103;DHT22;41970;48.774;9.280;2024-03-02T12:09:35;13.60;96.30
56103;DHT22;41970;48.774;9.280;2024-03-02T12:12:08;13.60;95.70
56103;DHT22;41970;48.774;9.280;2024-03-02T12:14:36;13.70;95.60
56103;DHT22;41970;48.774;9.280;2024-03-02T12:17:02;13.70;96.10
56103;DHT22;41970;48.774;9.280;2024-03-02T12:19:29;13.80;96.10
56103;DHT22;41970;48.774;9.280;2024-03-02T12:21:59;14.00;95.40
56103;DHT22;41970;48.774;9.280;2024-03-02T12:24:27;14.00;95.60
56103;DHT22;41970;48.774;9.280;2024-03-02T12:26:54;13.80;95.00
56103;DHT22;41970;48.774;9.280;2024-03-02T12:29:20;13.80;95.00
56103;DHT22;41970;48.774;9.280;2024-03-02T12:31:51;13.90;95.20
56103;DHT22;41970;48.774;9.280;2024-03-02T12:34:18;14.00;94.70
56103;DHT22;41970;48.774;9.280;2024-03-02T12:36:47;14.00;94.00
56103;DHT22;41970;48.774;9.280;2024-03-02T12:39:21;14.00;93.60
56103;DHT22;41970;48.774;9.280;2024-03-02T12:41:49;14.00;94.10
56103;DHT22;41970;48.774;9.280;2024-03-02T12:44:19;14.00;93.40
56103;DHT22;41970;48.774;9.280;2024-03-02T12:46:46;14.10;93.50
56103;DHT22;41970;48.774;9.280;2024-03-02T12:49:13;14.30;94.10
56103;DHT22;41970;48.774;9.280;2024-03-02T12:51:40;14.50;93.30
56103;DHT22;41970;48.774;9.280;2024-03-02T12:54:10;14.70;93.40
56103;DHT22;41970;48.774;9.280;2024-03-02T12:56:37;14.60;93.40
56103;DHT22;41970;48.774;9.280;2024-03-02T12:59:06;14.50;92.90
56103;DHT22;41970;48.774;9.280;2024-03-02T13:01:32;14.50;92.30
56103;DHT22;41970;48.774;9.280;2024-03-02T13:03:58;14.50;92.30
56103;DHT22;41970;48.774;9.280;2024-03-02T13:06:25;14.70;91.30
56103;DHT22;41970;48.774;9.280;2024-03-02T13:08:53;14.90;91.80
56103;DHT22;41970;48.774;9.280;2024-03-02T13:11:21;14.70;91.50
56103;DHT22;41970;48.774;9.280;2024-03-02T13:13:47;14.60;92.40
56103;DHT22;41970;48.774;9.280;2024-03-02T13:16:39;14.80;92.30
56103;DHT22;41970;48.774;9.280;2024-03-02T13:19:13;15.00;92.50
56103;DHT22;41970;48.774;9.280;2024-03-02T13:21:39;14.90;91.70
56103;DHT22;41970;48.774;9.280;2024-03-02T13:24:05;15.00;91.40
56103;DHT22;41970;48.774;9.280;2024-03-02T13:26:32;15.10;91.40
56103;DHT22;41970;48.774;9.280;2024-03-02T13:28:57;15.10;92.10
56103;DHT22;41970;48.774;9.280;2024-03-02T13:31:23;15.20;91.80
56103;DHT22;41970;48.774;9.280;2024-03-02T13:33:49;15.40;91.30
56103;DHT22;41970;48.774;9.280;2024-03-02T13:36:14;15.40;91.30
56103;DHT22;41970;48.774;9.280;2024-03-02T13:38:40;15.30;91.70
56103;DHT22;41970;48.774;9.280;2024-03-02T13:41:06;15.10;90.90
56103;DHT22;41970;48.774;9.280;2024-03-02T13:43:32;15.00;91.60
56103;DHT22;41970;48.774;9.280;2024-03-02T13:45:58;15.10;91.90
56103;DHT22;41970;48.774;9.280;2024-03-02T13:48:24;15.40;91.30
56103;DHT22;41970;48.774;9.280;2024-03-02T13:50:56;15.60;91.10
56103;DHT22;41970;48.774;9.280;2024-03-02T13:53:22;15.80;91.00
56103;DHT22;41970;48.774;9.280;2024-03-02T13:55:49;15.90;90.90
56103;DHT22;41970;48.774;9.280;2024-03-02T13:58:15;15.90;91.50
56103;DHT22;41970;48.774;9.280;2024-03-02T14:00:40;15.90;91.60
56103;DHT22;41970;48.774;9.280;2024-03-02T14:03:06;16.10;91.30
56103;DHT22;41970;48.774;9.280;2024-03-02T14:05:33;16.10;90.30
56103;DHT22;41970;48.774;9.280;2024-03-02T14:07:58;16.10;89.90
56103;DHT22;41970;48.774;9.280;2024-03-02T14:10:26;15.90;90.20
56103;DHT22;41970;48.774;9.280;2024-03-02T14:12:53;15.90;88.70
56103;DHT22;41970;48.774;9.280;2024-03-02T14:15:21;15.60;89.50
56103;DHT22;41970;48.774;9.280;2024-03-02T14:18:08;15.50;90.00
56103;DHT22;41970;48.774;9.280;2024-03-02T14:20:37;15.60;89.30
56103;DHT22;41970;48.774;9.280;2024-03-02T14:23:03;15.40;88.70
56103;DHT22;41970;48.774;9.280;2024-03-02T14:25:30;15.20;89.40
56103;DHT22;41970;48.774;9.280;2024-03-02T14:27:59;15.20;89.70
56103;DHT22;41970;48.774;9.280;2024-03-02T14:30:25;15.10;90.10
56103;DHT22;41970;48.774;9.280;2024-03-02T14:32:51;15.00;90.10
56103;DHT22;41970;48.774;9.280;2024-03-02T14:35:17;14.90;90.00
56103;DHT22;41970;48.774;9.280;2024-03-02T14:37:43;14.90;89.80
56103;DHT22;41970;48.774;9.280;2024-03-02T14:40:09;15.00;90.20
56103;DHT22;41970;48.774;9.280;2024-03-02T14:42:36;14.90;90.30
56103;DHT22;41970;48.774;9.280;2024-03-02T14:45:02;14.90;89.40
56103;DHT22;41970;48.774;9.280;2024-03-02T14:47:31;14.90;87.70
56103;DHT22;41970;48.774;9.280;2024-03-02T14:49:58;15.10;89.60
56103;DHT22;41970;48.774;9.280;2024-03-02T14:52:23;15.20;87.30
56103;DHT22;41970;48.774;9.280;2024-03-02T14:54:49;15.10;87.80
56103;DHT22;41970;48.774;9.280;2024-03-02T14:57:15;15.10;88.10
56103;DHT22;41970;48.774;9.280;2024-03-02T14:59:41;15.10;88.50
56103;DHT22;41970;48.774;9.280;2024-03-02T15:02:08;15.10;87.80
56103;DHT22;41970;48.774;9.280;2024-03-02T15:04:34;14.90;88.10
56103;DHT22;41970;48.774;9.280;2024-03-02T15:07:00;14.80;88.40
56103;DHT22;41970;48.774;9.280;2024-03-02T15:09:26;14.80;89.60
56103;DHT22;41970;48.774;9.280;2024-03-02T15:11:51;14.80;88.70
56103;DHT22;41970;48.774;9.280;2024-03-02T15:14:17;14.70;88.60
56103;DHT22;41970;48.774;9.280;2024-03-02T15:16:43;14.70;87.90
56103;DHT22;41970;48.774;9.280;2024-03-02T15:19:09;14.60;89.20
56103;DHT22;41970;48.774;9.280;2024-03-02T15:21:35;14.60;89.00
56103;DHT22;41970;48.774;9.280;2024-03-02T15:24:01;14.80;89.10
56103;DHT22;41970;48.774;9.280;2024-03-02T15:26:26;14.70;88.60
56103;DHT22;41970;48.774;9.280;2024-03-02T15:28:52;14.80;89.40
56103;DHT22;41970;48.774;9.280;2024-03-02T15:31:20;14.90;89.00
56103;DHT22;41970;48.774;9.280;2024-03-02T15:33:46;14.60;88.90
56103;DHT22;41970;48.774;9.280;2024-03-02T15:36:12;14.50;89.60
56103;DHT22;41970;48.774;9.280;2024-03-02T15:38:38;14.30;89.60
56103;DHT22;41970;48.774;9.280;2024-03-02T15:41:04;14.30;90.00
56103;DHT22;41970;48.774;9.280;2024-03-02T15:43:30;14.20;90.20
56103;DHT22;41970;48.774;9.280;2024-03-02T15:45:57;14.10;90.50